Tuesday, January 22, 2019, 4:56 PM EST
Back to Local

KSFZ, Pawtucket, North Central State Airport

Location: Smithfield, RI, United States Lat: 41.917
Local Time: 4:56 PM EST (21:56 GMT) Lon: -71.5
Time Zone: US/Eastern Elev: 439 ft

Show me the last for .
Show Coded

Time T Td Feel RH Dir Speed Gust Alt SLP Vis Weather Sky Remarks
2019-01-22 15:56 24 8 18 49 320° 5 - 30.52 30.37 10 CLR None
2019-01-22 14:56 24 7 14 47 310° 10 - 30.50 30.35 10 CLR None
2019-01-22 13:56 24 7 11 47 330° 9 17 30.48 30.34 10 CLR None
2019-01-22 12:56 22 7 10 51 310° 13 - 30.49 30.35 10 CLR 6-hr Min Temp (1pm): 1.9°F
6-hr Max Temp (1pm): 21.9°F
2019-01-22 11:56 19 5 4 53 310° 13 18 30.49 30.35 10 CLR None
2019-01-22 10:56 17 2 0 50 320° 13 21 30.50 30.36 10 CLR None
2019-01-22 09:56 13 2 -4 60 310° 14 18 30.50 30.36 10 CLR None
2019-01-22 08:56 8 -1 -11 65 300° 13 20 30.47 30.34 10 CLR None
2019-01-22 07:56 5 -4 -14 65 290° 10 17 30.46 30.32 10 CLR None
2019-01-22 06:56 3 -5 -9 68 310° 7 - 30.42 30.29 10 CLR 6-hr Min Temp (7am): 1.0°F
6-hr Max Temp (7am): 3.0°F
2019-01-22 05:56 3 -6 -20 65 310° 12 25 30.35 30.21 10 CLR None
2019-01-22 04:56 3 -6 -19 65 310° 15 22 30.30 30.16 10 CLR None
2019-01-22 03:56 2 -7 -15 65 330° 12 - 30.25 30.11 10 CLR None
2019-01-22 01:56 1 -7 -20 67 310° 15 20 30.19 30.05 10 CLR None
2019-01-22 00:56 1 -7 -17 67 300° 13 - 30.16 30.03 10 CLR 6-hr Precip Total (1am): 0.00"
6-hr Min Temp (1am): 1.0°F
6-hr Max Temp (1am): 3.0°F
2019-01-21 23:56 1 -7 -15 67 290° 10 - 30.15 30.01 10 CLR 24-hr Min Temp (12am): -2.9°F
24-hr Max Temp (12am): 5.0°F
2019-01-21 22:56 1 -7 -21 67 320° 12 21 30.12 29.99 10 SCT065 BKN085 None
2019-01-21 21:56 1 -6 -20 71 320° 9 18 30.09 29.95 10 BKN080 6-hr Precip Total (10pm): 0.00"
2019-01-21 20:56 2 -6 -22 68 310° 18 25 30.05 29.91 10 FEW100 None
2019-01-21 19:56 3 -5 -23 68 320° 15 33 30.01 29.87 10 SCT050 OVC065 Peak wind: 33 mph (29 kts) from 310° at 49 min
1-hr Precip Total: Trace
2019-01-21 18:56 2 -5 -19 71 330° 14 20 29.97 29.84 9 -SN OVC041 1-hr Precip Total: Trace
6-hr Precip Total (7pm): 0.00"
6-hr Min Temp (7pm): -0.0°F
6-hr Max Temp (7pm): 3.0°F
2019-01-21 17:56 1 -6 -21 71 310° 13 21 29.93 29.80 10 FEW043 BKN050 OVC070 1-hr Precip Total: Trace

Support USWX by starting your Amazon purchase here.